sensor_id;sensor_type;location;lat;lon;timestamp;temperature;humidity
34568;DHT22;20806;50.746;7.116;2023-03-01T05:11:02;-0.50;99.90
34568;DHT22;20806;50.746;7.116;2023-03-01T05:20:46;-0.70;99.90
34568;DHT22;20806;50.746;7.116;2023-03-01T05:30:32;-0.90;99.90
34568;DHT22;20806;50.746;7.116;2023-03-01T05:32:58;-0.90;99.90
34568;DHT22;20806;50.746;7.116;2023-03-01T05:35:24;-0.90;99.90
34568;DHT22;20806;50.746;7.116;2023-03-01T05:37:49;-0.90;99.90
34568;DHT22;20806;50.746;7.116;2023-03-01T05:40:17;-0.90;99.90
34568;DHT22;20806;50.746;7.116;2023-03-01T05:42:43;-0.90;99.90
34568;DHT22;20806;50.746;7.116;2023-03-01T05:45:09;-0.90;99.90
34568;DHT22;20806;50.746;7.116;2023-03-01T05:47:35;-0.90;99.90
34568;DHT22;20806;50.746;7.116;2023-03-01T05:50:00;-0.90;99.90
34568;DHT22;20806;50.746;7.116;2023-03-01T05:52:26;-0.90;99.90
34568;DHT22;20806;50.746;7.116;2023-03-01T05:54:51;-0.90;99.90
34568;DHT22;20806;50.746;7.116;2023-03-01T05:57:17;-0.90;99.90
34568;DHT22;20806;50.746;7.116;2023-03-01T05:59:42;-1.00;99.90
34568;DHT22;20806;50.746;7.116;2023-03-01T06:02:08;-1.00;99.90
34568;DHT22;20806;50.746;7.116;2023-03-01T06:04:34;-1.00;99.90
34568;DHT22;20806;50.746;7.116;2023-03-01T06:06:59;-1.00;99.90
34568;DHT22;20806;50.746;7.116;2023-03-01T06:09:24;-1.00;99.90
34568;DHT22;20806;50.746;7.116;2023-03-01T06:11:51;-1.00;99.90
34568;DHT22;20806;50.746;7.116;2023-03-01T06:14:16;-1.00;99.90
34568;DHT22;20806;50.746;7.116;2023-03-01T06:16:42;-1.00;99.90
34568;DHT22;20806;50.746;7.116;2023-03-01T06:19:07;-1.00;99.90
34568;DHT22;20806;50.746;7.116;2023-03-01T06:21:33;-0.90;99.90
34568;DHT22;20806;50.746;7.116;2023-03-01T06:23:58;-0.90;99.90
34568;DHT22;20806;50.746;7.116;2023-03-01T06:28:49;-0.90;99.90
34568;DHT22;20806;50.746;7.116;2023-03-01T06:31:15;-0.90;99.90
34568;DHT22;20806;50.746;7.116;2023-03-01T06:33:41;-1.00;99.90
34568;DHT22;20806;50.746;7.116;2023-03-01T06:36:07;-1.00;99.90
34568;DHT22;20806;50.746;7.116;2023-03-01T06:38:33;-1.10;99.90
34568;DHT22;20806;50.746;7.116;2023-03-01T06:40:58;-1.00;99.90
34568;DHT22;20806;50.746;7.116;2023-03-01T06:43:24;-1.00;99.90
34568;DHT22;20806;50.746;7.116;2023-03-01T06:45:55;-1.00;99.90
34568;DHT22;20806;50.746;7.116;2023-03-01T06:48:20;-1.00;99.90
34568;DHT22;20806;50.746;7.116;2023-03-01T06:50:46;-0.90;99.90
34568;DHT22;20806;50.746;7.116;2023-03-01T06:53:11;-0.80;99.90
34568;DHT22;20806;50.746;7.116;2023-03-01T06:55:37;-0.90;99.90
34568;DHT22;20806;50.746;7.116;2023-03-01T06:58:02;-0.90;99.90
34568;DHT22;20806;50.746;7.116;2023-03-01T07:00:28;-0.90;99.90
34568;DHT22;20806;50.746;7.116;2023-03-01T07:02:54;-0.90;99.90
34568;DHT22;20806;50.746;7.116;2023-03-01T07:05:20;-0.90;99.90
34568;DHT22;20806;50.746;7.116;2023-03-01T07:07:45;-0.80;99.90
34568;DHT22;20806;50.746;7.116;2023-03-01T07:10:11;-0.80;99.90
34568;DHT22;20806;50.746;7.116;2023-03-01T07:12:37;-0.70;99.90
34568;DHT22;20806;50.746;7.116;2023-03-01T07:15:03;-0.70;99.90
34568;DHT22;20806;50.746;7.116;2023-03-01T07:17:28;-0.70;99.90
34568;DHT22;20806;50.746;7.116;2023-03-01T07:19:54;-0.70;99.90
34568;DHT22;20806;50.746;7.116;2023-03-01T07:22:19;-0.70;99.90
34568;DHT22;20806;50.746;7.116;2023-03-01T07:24:45;-0.60;99.90
34568;DHT22;20806;50.746;7.116;2023-03-01T07:27:10;-0.50;99.90
34568;DHT22;20806;50.746;7.116;2023-03-01T07:29:36;-0.50;99.90
34568;DHT22;20806;50.746;7.116;2023-03-01T07:32:02;-0.40;99.90
34568;DHT22;20806;50.746;7.116;2023-03-01T07:34:28;-0.40;99.90
34568;DHT22;20806;50.746;7.116;2023-03-01T07:36:53;-0.30;99.90
34568;DHT22;20806;50.746;7.116;2023-03-01T07:39:19;-0.20;99.90
34568;DHT22;20806;50.746;7.116;2023-03-01T07:41:44;-0.20;99.90
34568;DHT22;20806;50.746;7.116;2023-03-01T07:44:10;-0.10;99.90
34568;DHT22;20806;50.746;7.116;2023-03-01T07:46:36;-0.10;99.90
34568;DHT22;20806;50.746;7.116;2023-03-01T07:49:01;-0.10;99.90
34568;DHT22;20806;50.746;7.116;2023-03-01T07:51:27;-0.10;99.90
34568;DHT22;20806;50.746;7.116;2023-03-01T07:53:52;-0.10;99.90
34568;DHT22;20806;50.746;7.116;2023-03-01T07:56:18;0.00;99.90
34568;DHT22;20806;50.746;7.116;2023-03-01T07:58:44;0.10;99.90
34568;DHT22;20806;50.746;7.116;2023-03-01T08:01:14;0.10;99.90
34568;DHT22;20806;50.746;7.116;2023-03-01T08:03:40;0.10;99.90
34568;DHT22;20806;50.746;7.116;2023-03-01T08:06:07;0.20;99.90
34568;DHT22;20806;50.746;7.116;2023-03-01T08:08:33;0.30;99.90
34568;DHT22;20806;50.746;7.116;2023-03-01T08:10:59;0.40;99.90
34568;DHT22;20806;50.746;7.116;2023-03-01T08:13:25;0.40;99.90
34568;DHT22;20806;50.746;7.116;2023-03-01T08:15:51;0.50;99.90
34568;DHT22;20806;50.746;7.116;2023-03-01T08:18:17;0.60;99.90
34568;DHT22;20806;50.746;7.116;2023-03-01T08:20:43;0.70;99.90
34568;DHT22;20806;50.746;7.116;2023-03-01T08:23:09;0.70;99.90
34568;DHT22;20806;50.746;7.116;2023-03-01T08:25:34;0.70;99.90
34568;DHT22;20806;50.746;7.116;2023-03-01T08:28:00;0.80;99.90
34568;DHT22;20806;50.746;7.116;2023-03-01T08:30:25;0.80;99.90
34568;DHT22;20806;50.746;7.116;2023-03-01T08:32:51;0.80;99.90
34568;DHT22;20806;50.746;7.116;2023-03-01T08:35:17;0.90;99.90
34568;DHT22;20806;50.746;7.116;2023-03-01T08:37:42;0.90;99.90
34568;DHT22;20806;50.746;7.116;2023-03-01T08:40:08;1.00;99.90
34568;DHT22;20806;50.746;7.116;2023-03-01T08:42:35;1.10;99.90
34568;DHT22;20806;50.746;7.116;2023-03-01T08:45:01;1.20;99.90
34568;DHT22;20806;50.746;7.116;2023-03-01T08:47:27;1.30;99.90
34568;DHT22;20806;50.746;7.116;2023-03-01T08:49:52;1.40;99.90
34568;DHT22;20806;50.746;7.116;2023-03-01T08:52:18;1.40;99.90
34568;DHT22;20806;50.746;7.116;2023-03-01T08:54:44;1.50;99.90
34568;DHT22;20806;50.746;7.116;2023-03-01T08:57:10;1.60;99.90
34568;DHT22;20806;50.746;7.116;2023-03-01T08:59:35;1.70;99.90
34568;DHT22;20806;50.746;7.116;2023-03-01T09:02:03;1.70;99.90
34568;DHT22;20806;50.746;7.116;2023-03-01T09:04:28;1.90;99.90
34568;DHT22;20806;50.746;7.116;2023-03-01T09:06:54;2.00;99.90
34568;DHT22;20806;50.746;7.116;2023-03-01T09:09:20;2.10;99.90
34568;DHT22;20806;50.746;7.116;2023-03-01T09:11:45;2.20;99.90
34568;DHT22;20806;50.746;7.116;2023-03-01T09:14:11;2.30;99.90
34568;DHT22;20806;50.746;7.116;2023-03-01T09:16:37;2.30;99.90
34568;DHT22;20806;50.746;7.116;2023-03-01T09:19:03;2.40;99.90
34568;DHT22;20806;50.746;7.116;2023-03-01T09:21:28;2.50;99.90
34568;DHT22;20806;50.746;7.116;2023-03-01T09:23:55;2.60;99.90
34568;DHT22;20806;50.746;7.116;2023-03-01T09:26:21;2.70;99.90
34568;DHT22;20806;50.746;7.116;2023-03-01T09:28:47;2.70;99.90
34568;DHT22;20806;50.746;7.116;2023-03-01T09:31:13;2.80;99.90
34568;DHT22;20806;50.746;7.116;2023-03-01T09:33:39;2.80;99.90
34568;DHT22;20806;50.746;7.116;2023-03-01T09:36:06;2.80;99.90
34568;DHT22;20806;50.746;7.116;2023-03-01T09:38:32;2.90;99.90
34568;DHT22;20806;50.746;7.116;2023-03-01T09:40:58;2.90;99.90
34568;DHT22;20806;50.746;7.116;2023-03-01T09:46:09;3.00;99.90
34568;DHT22;20806;50.746;7.116;2023-03-01T09:48:50;3.10;99.90
34568;DHT22;20806;50.746;7.116;2023-03-01T09:51:30;3.10;99.90
34568;DHT22;20806;50.746;7.116;2023-03-01T09:53:56;3.20;99.90
34568;DHT22;20806;50.746;7.116;2023-03-01T10:03:55;3.40;99.90
34568;DHT22;20806;50.746;7.116;2023-03-01T10:06:23;3.50;99.90
34568;DHT22;20806;50.746;7.116;2023-03-01T10:08:54;3.60;99.90
34568;DHT22;20806;50.746;7.116;2023-03-01T10:11:22;3.60;99.90
34568;DHT22;20806;50.746;7.116;2023-03-01T10:14:03;3.70;99.90
34568;DHT22;20806;50.746;7.116;2023-03-01T10:18:59;3.90;99.90
34568;DHT22;20806;50.746;7.116;2023-03-01T10:21:26;3.90;99.90
34568;DHT22;20806;50.746;7.116;2023-03-01T10:23:52;4.00;99.90
34568;DHT22;20806;50.746;7.116;2023-03-01T10:26:34;4.10;99.90
34568;DHT22;20806;50.746;7.116;2023-03-01T10:29:08;4.10;99.90
34568;DHT22;20806;50.746;7.116;2023-03-01T10:31:39;4.20;99.90
34568;DHT22;20806;50.746;7.116;2023-03-01T10:34:18;4.20;99.90
34568;DHT22;20806;50.746;7.116;2023-03-01T10:36:47;4.30;99.90
34568;DHT22;20806;50.746;7.116;2023-03-01T10:39:15;4.40;99.90
34568;DHT22;20806;50.746;7.116;2023-03-01T10:41:55;4.40;99.90
34568;DHT22;20806;50.746;7.116;2023-03-01T10:47:12;4.60;99.90
34568;DHT22;20806;50.746;7.116;2023-03-01T10:49:38;4.60;99.90
34568;DHT22;20806;50.746;7.116;2023-03-01T10:52:20;4.70;99.90
34568;DHT22;20806;50.746;7.116;2023-03-01T10:54:55;4.70;99.90
34568;DHT22;20806;50.746;7.116;2023-03-01T10:57:25;4.80;99.90
34568;DHT22;20806;50.746;7.116;2023-03-01T11:00:00;4.80;99.90
34568;DHT22;20806;50.746;7.116;2023-03-01T11:02:28;4.80;99.90
34568;DHT22;20806;50.746;7.116;2023-03-01T11:04:57;4.90;99.90
34568;DHT22;20806;50.746;7.116;2023-03-01T11:07:23;4.90;99.90
34568;DHT22;20806;50.746;7.116;2023-03-01T11:09:48;5.00;99.90
34568;DHT22;20806;50.746;7.116;2023-03-01T11:12:14;5.00;99.90
34568;DHT22;20806;50.746;7.116;2023-03-01T11:14:46;5.00;99.70
34568;DHT22;20806;50.746;7.116;2023-03-01T11:17:16;5.10;99.70
34568;DHT22;20806;50.746;7.116;2023-03-01T11:19:42;5.10;99.70
34568;DHT22;20806;50.746;7.116;2023-03-01T11:22:19;5.10;99.70
34568;DHT22;20806;50.746;7.116;2023-03-01T11:24:52;5.10;99.60
34568;DHT22;20806;50.746;7.116;2023-03-01T11:27:26;5.10;99.50
34568;DHT22;20806;50.746;7.116;2023-03-01T11:30:03;5.20;99.40
34568;DHT22;20806;50.746;7.116;2023-03-01T11:32:35;5.20;99.60
34568;DHT22;20806;50.746;7.116;2023-03-01T11:35:05;5.20;99.70
34568;DHT22;20806;50.746;7.116;2023-03-01T11:37:37;5.30;99.20
34568;DHT22;20806;50.746;7.116;2023-03-01T11:40:05;5.40;99.20
34568;DHT22;20806;50.746;7.116;2023-03-01T11:45:08;5.50;98.90
34568;DHT22;20806;50.746;7.116;2023-03-01T11:50:14;5.60;98.60
34568;DHT22;20806;50.746;7.116;2023-03-01T11:52:56;5.70;98.40
34568;DHT22;20806;50.746;7.116;2023-03-01T11:55:34;5.70;98.30
34568;DHT22;20806;50.746;7.116;2023-03-01T12:00:36;5.90;98.00
34568;DHT22;20806;50.746;7.116;2023-03-01T12:19:19;6.70;96.30
34568;DHT22;20806;50.746;7.116;2023-03-01T12:22:04;6.80;96.20
34568;DHT22;20806;50.746;7.116;2023-03-01T12:36:53;8.80;99.90
34568;DHT22;20806;50.746;7.116;2023-03-01T12:41:52;9.20;94.00
